sensor_id;sensor_type;location;lat;lon;timestamp;P1;durP1;ratioP1;P2;durP2;ratioP2
22543;SDS011;11438;52.044;8.716;2023-07-02T00:02:14;5.78;;;2.45;;
22543;SDS011;11438;52.044;8.716;2023-07-02T00:04:41;3.95;;;2.47;;
22543;SDS011;11438;52.044;8.716;2023-07-02T00:07:07;3.85;;;2.20;;
22543;SDS011;11438;52.044;8.716;2023-07-02T00:09:32;4.18;;;2.53;;
22543;SDS011;11438;52.044;8.716;2023-07-02T00:11:58;4.60;;;2.65;;
22543;SDS011;11438;52.044;8.716;2023-07-02T00:14:23;3.55;;;2.65;;
22543;SDS011;11438;52.044;8.716;2023-07-02T00:16:49;7.00;;;3.30;;
22543;SDS011;11438;52.044;8.716;2023-07-02T00:19:14;5.07;;;2.75;;
22543;SDS011;11438;52.044;8.716;2023-07-02T00:21:40;7.10;;;3.22;;
22543;SDS011;11438;52.044;8.716;2023-07-02T00:24:06;6.85;;;3.45;;
22543;SDS011;11438;52.044;8.716;2023-07-02T00:26:34;7.68;;;4.28;;
22543;SDS011;11438;52.044;8.716;2023-07-02T00:29:00;5.15;;;3.80;;
22543;SDS011;11438;52.044;8.716;2023-07-02T00:31:25;5.63;;;3.35;;
22543;SDS011;11438;52.044;8.716;2023-07-02T00:33:51;4.57;;;2.88;;
22543;SDS011;11438;52.044;8.716;2023-07-02T00:36:16;5.07;;;3.40;;
22543;SDS011;11438;52.044;8.716;2023-07-02T00:38:43;6.88;;;3.58;;
22543;SDS011;11438;52.044;8.716;2023-07-02T00:41:10;4.10;;;3.70;;
22543;SDS011;11438;52.044;8.716;2023-07-02T00:43:36;5.05;;;3.70;;
22543;SDS011;11438;52.044;8.716;2023-07-02T00:46:08;5.60;;;3.53;;
22543;SDS011;11438;52.044;8.716;2023-07-02T00:48:38;4.90;;;3.90;;
22543;SDS011;11438;52.044;8.716;2023-07-02T00:51:04;4.97;;;3.35;;
22543;SDS011;11438;52.044;8.716;2023-07-02T00:53:30;4.40;;;3.35;;
22543;SDS011;11438;52.044;8.716;2023-07-02T00:55:57;4.60;;;3.42;;
22543;SDS011;11438;52.044;8.716;2023-07-02T00:58:23;5.72;;;3.70;;
22543;SDS011;11438;52.044;8.716;2023-07-02T01:00:48;5.00;;;3.83;;
22543;SDS011;11438;52.044;8.716;2023-07-02T01:03:14;6.63;;;3.45;;
22543;SDS011;11438;52.044;8.716;2023-07-02T01:05:39;6.05;;;3.63;;
22543;SDS011;11438;52.044;8.716;2023-07-02T01:08:06;4.15;;;3.22;;
22543;SDS011;11438;52.044;8.716;2023-07-02T01:10:32;4.40;;;3.85;;
22543;SDS011;11438;52.044;8.716;2023-07-02T01:13:00;4.70;;;3.40;;
22543;SDS011;11438;52.044;8.716;2023-07-02T01:15:30;4.90;;;3.72;;
22543;SDS011;11438;52.044;8.716;2023-07-02T01:17:56;4.05;;;3.25;;
22543;SDS011;11438;52.044;8.716;2023-07-02T01:20:22;5.40;;;3.20;;
22543;SDS011;11438;52.044;8.716;2023-07-02T01:22:50;6.32;;;3.45;;
22543;SDS011;11438;52.044;8.716;2023-07-02T01:25:18;4.90;;;3.58;;
22543;SDS011;11438;52.044;8.716;2023-07-02T01:27:49;6.55;;;3.67;;
22543;SDS011;11438;52.044;8.716;2023-07-02T01:30:15;4.13;;;2.88;;
22543;SDS011;11438;52.044;8.716;2023-07-02T01:32:41;5.95;;;3.28;;
22543;SDS011;11438;52.044;8.716;2023-07-02T01:35:07;6.47;;;3.60;;
22543;SDS011;11438;52.044;8.716;2023-07-02T01:37:33;5.47;;;3.47;;
22543;SDS011;11438;52.044;8.716;2023-07-02T01:40:02;4.70;;;3.30;;
22543;SDS011;11438;52.044;8.716;2023-07-02T01:42:31;7.10;;;3.45;;
22543;SDS011;11438;52.044;8.716;2023-07-02T01:44:56;5.65;;;3.65;;
22543;SDS011;11438;52.044;8.716;2023-07-02T01:47:22;6.90;;;3.25;;
22543;SDS011;11438;52.044;8.716;2023-07-02T01:49:47;4.65;;;3.15;;
22543;SDS011;11438;52.044;8.716;2023-07-02T01:52:14;4.13;;;3.45;;
22543;SDS011;11438;52.044;8.716;2023-07-02T01:54:40;4.20;;;2.97;;
22543;SDS011;11438;52.044;8.716;2023-07-02T01:57:06;3.67;;;3.25;;
22543;SDS011;11438;52.044;8.716;2023-07-02T01:59:32;3.47;;;2.92;;
22543;SDS011;11438;52.044;8.716;2023-07-02T02:01:57;4.88;;;3.15;;
22543;SDS011;11438;52.044;8.716;2023-07-02T02:04:23;3.47;;;3.17;;
22543;SDS011;11438;52.044;8.716;2023-07-02T02:06:48;4.07;;;3.00;;
22543;SDS011;11438;52.044;8.716;2023-07-02T02:09:14;5.95;;;3.55;;
22543;SDS011;11438;52.044;8.716;2023-07-02T02:11:45;5.53;;;3.22;;
22543;SDS011;11438;52.044;8.716;2023-07-02T02:14:13;3.47;;;2.80;;
22543;SDS011;11438;52.044;8.716;2023-07-02T02:16:38;6.95;;;3.47;;
22543;SDS011;11438;52.044;8.716;2023-07-02T02:19:04;6.35;;;3.40;;
22543;SDS011;11438;52.044;8.716;2023-07-02T02:21:30;5.50;;;3.75;;
22543;SDS011;11438;52.044;8.716;2023-07-02T02:23:55;6.32;;;4.18;;
22543;SDS011;11438;52.044;8.716;2023-07-02T02:26:21;4.40;;;3.28;;
22543;SDS011;11438;52.044;8.716;2023-07-02T02:28:47;4.90;;;3.60;;
22543;SDS011;11438;52.044;8.716;2023-07-02T02:31:14;4.55;;;3.78;;
22543;SDS011;11438;52.044;8.716;2023-07-02T02:33:40;5.43;;;3.95;;
22543;SDS011;11438;52.044;8.716;2023-07-02T02:36:05;6.63;;;4.40;;
22543;SDS011;11438;52.044;8.716;2023-07-02T02:38:31;6.10;;;4.30;;
22543;SDS011;11438;52.044;8.716;2023-07-02T02:40:56;8.40;;;4.75;;
22543;SDS011;11438;52.044;8.716;2023-07-02T02:43:22;5.03;;;4.45;;
22543;SDS011;11438;52.044;8.716;2023-07-02T02:45:47;6.88;;;5.63;;
22543;SDS011;11438;52.044;8.716;2023-07-02T02:48:13;6.95;;;5.03;;
22543;SDS011;11438;52.044;8.716;2023-07-02T02:50:38;8.63;;;6.10;;
22543;SDS011;11438;52.044;8.716;2023-07-02T02:53:06;7.93;;;6.28;;
22543;SDS011;11438;52.044;8.716;2023-07-02T02:55:35;8.43;;;5.72;;
22543;SDS011;11438;52.044;8.716;2023-07-02T02:58:01;7.82;;;6.22;;
22543;SDS011;11438;52.044;8.716;2023-07-02T03:00:26;7.88;;;6.38;;
22543;SDS011;11438;52.044;8.716;2023-07-02T03:02:52;8.65;;;6.95;;
22543;SDS011;11438;52.044;8.716;2023-07-02T03:05:17;11.20;;;7.72;;
22543;SDS011;11438;52.044;8.716;2023-07-02T03:07:43;10.55;;;6.55;;
22543;SDS011;11438;52.044;8.716;2023-07-02T03:10:09;8.50;;;7.47;;
22543;SDS011;11438;52.044;8.716;2023-07-02T03:12:34;9.98;;;7.43;;
22543;SDS011;11438;52.044;8.716;2023-07-02T03:15:00;10.50;;;7.47;;
22543;SDS011;11438;52.044;8.716;2023-07-02T03:17:25;10.35;;;7.53;;
22543;SDS011;11438;52.044;8.716;2023-07-02T03:19:51;9.38;;;7.55;;
22543;SDS011;11438;52.044;8.716;2023-07-02T03:22:16;9.13;;;7.18;;
22543;SDS011;11438;52.044;8.716;2023-07-02T03:24:42;9.77;;;7.55;;
22543;SDS011;11438;52.044;8.716;2023-07-02T03:27:08;9.50;;;7.50;;
22543;SDS011;11438;52.044;8.716;2023-07-02T03:29:33;11.32;;;8.63;;
22543;SDS011;11438;52.044;8.716;2023-07-02T03:31:59;11.20;;;8.15;;
22543;SDS011;11438;52.044;8.716;2023-07-02T03:34:25;10.25;;;8.05;;
22543;SDS011;11438;52.044;8.716;2023-07-02T03:36:51;9.98;;;7.82;;
22543;SDS011;11438;52.044;8.716;2023-07-02T03:39:16;9.57;;;7.80;;
22543;SDS011;11438;52.044;8.716;2023-07-02T03:41:42;10.05;;;7.90;;
22543;SDS011;11438;52.044;8.716;2023-07-02T03:44:08;11.20;;;7.10;;
22543;SDS011;11438;52.044;8.716;2023-07-02T03:46:34;9.40;;;7.28;;
22543;SDS011;11438;52.044;8.716;2023-07-02T03:49:00;11.63;;;7.88;;
22543;SDS011;11438;52.044;8.716;2023-07-02T03:51:25;10.93;;;7.88;;
22543;SDS011;11438;52.044;8.716;2023-07-02T03:53:51;11.75;;;8.40;;
22543;SDS011;11438;52.044;8.716;2023-07-02T03:56:16;12.70;;;8.38;;
22543;SDS011;11438;52.044;8.716;2023-07-02T03:58:42;10.98;;;8.05;;
22543;SDS011;11438;52.044;8.716;2023-07-02T04:01:08;10.90;;;7.95;;
22543;SDS011;11438;52.044;8.716;2023-07-02T04:03:33;10.77;;;8.00;;
22543;SDS011;11438;52.044;8.716;2023-07-02T04:05:59;10.95;;;8.13;;
22543;SDS011;11438;52.044;8.716;2023-07-02T04:08:25;11.25;;;8.00;;
22543;SDS011;11438;52.044;8.716;2023-07-02T04:10:53;13.70;;;8.35;;
22543;SDS011;11438;52.044;8.716;2023-07-02T04:13:18;9.82;;;7.97;;
22543;SDS011;11438;52.044;8.716;2023-07-02T04:15:44;12.07;;;8.27;;
22543;SDS011;11438;52.044;8.716;2023-07-02T04:18:10;9.63;;;7.97;;
22543;SDS011;11438;52.044;8.716;2023-07-02T04:20:35;11.90;;;7.47;;
22543;SDS011;11438;52.044;8.716;2023-07-02T04:23:03;13.20;;;7.28;;
22543;SDS011;11438;52.044;8.716;2023-07-02T04:25:29;11.98;;;7.70;;
22543;SDS011;11438;52.044;8.716;2023-07-02T04:27:55;11.57;;;7.47;;
22543;SDS011;11438;52.044;8.716;2023-07-02T04:30:22;12.57;;;6.82;;
22543;SDS011;11438;52.044;8.716;2023-07-02T04:32:47;8.95;;;5.75;;
22543;SDS011;11438;52.044;8.716;2023-07-02T04:35:13;11.43;;;5.97;;
22543;SDS011;11438;52.044;8.716;2023-07-02T04:37:38;9.00;;;5.65;;
22543;SDS011;11438;52.044;8.716;2023-07-02T04:40:04;8.90;;;5.00;;
22543;SDS011;11438;52.044;8.716;2023-07-02T04:42:34;9.50;;;5.30;;
22543;SDS011;11438;52.044;8.716;2023-07-02T04:45:02;7.20;;;4.28;;
22543;SDS011;11438;52.044;8.716;2023-07-02T04:47:29;8.88;;;4.25;;
22543;SDS011;11438;52.044;8.716;2023-07-02T04:49:55;7.43;;;4.32;;
22543;SDS011;11438;52.044;8.716;2023-07-02T04:52:21;9.18;;;4.20;;
22543;SDS011;11438;52.044;8.716;2023-07-02T04:54:47;9.02;;;4.57;;
22543;SDS011;11438;52.044;8.716;2023-07-02T04:57:12;9.60;;;4.28;;
22543;SDS011;11438;52.044;8.716;2023-07-02T04:59:39;7.63;;;4.00;;
22543;SDS011;11438;52.044;8.716;2023-07-02T05:02:06;10.40;;;4.45;;
22543;SDS011;11438;52.044;8.716;2023-07-02T05:04:31;7.53;;;3.95;;
22543;SDS011;11438;52.044;8.716;2023-07-02T05:06:57;12.45;;;4.18;;
22543;SDS011;11438;52.044;8.716;2023-07-02T05:09:22;10.98;;;4.28;;
22543;SDS011;11438;52.044;8.716;2023-07-02T05:11:48;9.32;;;4.15;;
22543;SDS011;11438;52.044;8.716;2023-07-02T05:14:13;10.15;;;4.60;;
22543;SDS011;11438;52.044;8.716;2023-07-02T05:16:39;7.88;;;4.20;;
22543;SDS011;11438;52.044;8.716;2023-07-02T05:19:04;8.80;;;4.38;;
22543;SDS011;11438;52.044;8.716;2023-07-02T05:21:29;12.52;;;4.13;;
22543;SDS011;11438;52.044;8.716;2023-07-02T05:23:55;9.80;;;4.75;;
22543;SDS011;11438;52.044;8.716;2023-07-02T05:26:21;11.48;;;4.90;;
22543;SDS011;11438;52.044;8.716;2023-07-02T05:28:46;10.13;;;4.25;;
22543;SDS011;11438;52.044;8.716;2023-07-02T05:31:13;9.07;;;4.70;;
22543;SDS011;11438;52.044;8.716;2023-07-02T05:33:38;13.07;;;4.90;;
22543;SDS011;11438;52.044;8.716;2023-07-02T05:36:04;12.13;;;4.63;;
22543;SDS011;11438;52.044;8.716;2023-07-02T05:38:29;9.85;;;4.15;;
22543;SDS011;11438;52.044;8.716;2023-07-02T05:40:55;10.77;;;4.22;;
22543;SDS011;11438;52.044;8.716;2023-07-02T05:43:20;10.43;;;4.15;;
22543;SDS011;11438;52.044;8.716;2023-07-02T05:45:46;10.55;;;4.07;;
22543;SDS011;11438;52.044;8.716;2023-07-02T05:48:11;11.88;;;4.82;;
22543;SDS011;11438;52.044;8.716;2023-07-02T05:50:37;12.73;;;4.40;;
22543;SDS011;11438;52.044;8.716;2023-07-02T05:53:02;10.82;;;4.35;;
22543;SDS011;11438;52.044;8.716;2023-07-02T05:55:28;12.00;;;4.47;;
22543;SDS011;11438;52.044;8.716;2023-07-02T05:57:53;9.00;;;4.25;;
22543;SDS011;11438;52.044;8.716;2023-07-02T06:00:19;10.52;;;4.63;;
22543;SDS011;11438;52.044;8.716;2023-07-02T06:02:46;14.85;;;5.55;;
22543;SDS011;11438;52.044;8.716;2023-07-02T06:05:11;11.38;;;5.03;;
22543;SDS011;11438;52.044;8.716;2023-07-02T06:07:37;10.88;;;4.78;;
22543;SDS011;11438;52.044;8.716;2023-07-02T06:10:02;12.85;;;5.18;;
22543;SDS011;11438;52.044;8.716;2023-07-02T06:12:28;10.20;;;5.28;;
22543;SDS011;11438;52.044;8.716;2023-07-02T06:14:54;11.70;;;4.75;;
22543;SDS011;11438;52.044;8.716;2023-07-02T06:17:19;11.65;;;5.20;;
22543;SDS011;11438;52.044;8.716;2023-07-02T06:19:46;13.15;;;4.63;;
22543;SDS011;11438;52.044;8.716;2023-07-02T06:22:12;16.90;;;5.50;;
22543;SDS011;11438;52.044;8.716;2023-07-02T06:24:37;14.93;;;5.20;;
22543;SDS011;11438;52.044;8.716;2023-07-02T06:27:03;13.02;;;4.82;;
22543;SDS011;11438;52.044;8.716;2023-07-02T06:29:28;12.77;;;4.85;;
22543;SDS011;11438;52.044;8.716;2023-07-02T06:31:54;12.27;;;4.85;;
22543;SDS011;11438;52.044;8.716;2023-07-02T06:34:19;13.50;;;5.35;;
22543;SDS011;11438;52.044;8.716;2023-07-02T06:36:45;14.38;;;5.38;;
22543;SDS011;11438;52.044;8.716;2023-07-02T06:39:10;14.68;;;5.93;;
22543;SDS011;11438;52.044;8.716;2023-07-02T06:41:36;15.38;;;5.50;;
22543;SDS011;11438;52.044;8.716;2023-07-02T06:44:02;14.35;;;5.20;;
22543;SDS011;11438;52.044;8.716;2023-07-02T06:46:28;15.57;;;5.38;;
22543;SDS011;11438;52.044;8.716;2023-07-02T06:48:54;13.63;;;5.70;;
22543;SDS011;11438;52.044;8.716;2023-07-02T06:51:20;12.50;;;5.82;;
22543;SDS011;11438;52.044;8.716;2023-07-02T06:53:46;13.68;;;5.20;;
22543;SDS011;11438;52.044;8.716;2023-07-02T06:56:11;12.15;;;4.95;;
22543;SDS011;11438;52.044;8.716;2023-07-02T06:58:38;12.02;;;5.10;;
22543;SDS011;11438;52.044;8.716;2023-07-02T07:01:06;12.48;;;5.00;;
22543;SDS011;11438;52.044;8.716;2023-07-02T07:03:33;16.80;;;5.60;;
22543;SDS011;11438;52.044;8.716;2023-07-02T07:05:59;13.25;;;5.65;;
22543;SDS011;11438;52.044;8.716;2023-07-02T07:08:24;12.60;;;5.18;;
22543;SDS011;11438;52.044;8.716;2023-07-02T07:10:50;10.02;;;4.60;;
22543;SDS011;11438;52.044;8.716;2023-07-02T07:13:16;14.60;;;5.18;;
22543;SDS011;11438;52.044;8.716;2023-07-02T07:15:41;11.38;;;5.10;;
22543;SDS011;11438;52.044;8.716;2023-07-02T07:18:08;12.82;;;4.57;;
22543;SDS011;11438;52.044;8.716;2023-07-02T07:20:34;12.00;;;5.15;;
22543;SDS011;11438;52.044;8.716;2023-07-02T07:22:59;9.25;;;4.85;;
22543;SDS011;11438;52.044;8.716;2023-07-02T07:25:26;12.00;;;5.22;;
22543;SDS011;11438;52.044;8.716;2023-07-02T07:27:52;13.35;;;5.40;;
22543;SDS011;11438;52.044;8.716;2023-07-02T07:30:17;14.18;;;5.28;;
22543;SDS011;11438;52.044;8.716;2023-07-02T07:32:47;11.73;;;5.45;;
22543;SDS011;11438;52.044;8.716;2023-07-02T07:35:13;14.30;;;5.32;;
22543;SDS011;11438;52.044;8.716;2023-07-02T07:37:39;18.27;;;5.90;;
22543;SDS011;11438;52.044;8.716;2023-07-02T07:40:05;16.65;;;5.65;;
22543;SDS011;11438;52.044;8.716;2023-07-02T07:42:31;11.45;;;5.13;;
22543;SDS011;11438;52.044;8.716;2023-07-02T07:44:57;12.80;;;5.63;;
22543;SDS011;11438;52.044;8.716;2023-07-02T07:47:22;14.80;;;5.22;;
22543;SDS011;11438;52.044;8.716;2023-07-02T07:49:48;14.40;;;5.65;;
22543;SDS011;11438;52.044;8.716;2023-07-02T07:52:13;11.65;;;5.88;;
22543;SDS011;11438;52.044;8.716;2023-07-02T07:54:39;12.98;;;5.88;;
22543;SDS011;11438;52.044;8.716;2023-07-02T07:57:04;12.70;;;5.78;;
22543;SDS011;11438;52.044;8.716;2023-07-02T07:59:30;14.70;;;5.53;;
22543;SDS011;11438;52.044;8.716;2023-07-02T08:01:55;14.02;;;5.32;;
22543;SDS011;11438;52.044;8.716;2023-07-02T08:04:21;13.93;;;5.78;;
22543;SDS011;11438;52.044;8.716;2023-07-02T08:06:46;13.82;;;5.82;;
22543;SDS011;11438;52.044;8.716;2023-07-02T08:09:12;11.20;;;5.07;;
22543;SDS011;11438;52.044;8.716;2023-07-02T08:11:37;14.93;;;5.78;;
22543;SDS011;11438;52.044;8.716;2023-07-02T08:14:03;12.32;;;5.18;;
22543;SDS011;11438;52.044;8.716;2023-07-02T08:16:28;14.32;;;5.47;;
22543;SDS011;11438;52.044;8.716;2023-07-02T08:18:54;11.35;;;5.15;;
22543;SDS011;11438;52.044;8.716;2023-07-02T08:21:19;13.32;;;5.55;;
22543;SDS011;11438;52.044;8.716;2023-07-02T08:23:45;15.18;;;5.63;;
22543;SDS011;11438;52.044;8.716;2023-07-02T08:26:11;12.98;;;5.78;;
22543;SDS011;11438;52.044;8.716;2023-07-02T08:28:36;12.32;;;6.10;;
22543;SDS011;11438;52.044;8.716;2023-07-02T08:31:03;14.00;;;5.32;;
22543;SDS011;11438;52.044;8.716;2023-07-02T08:33:29;12.35;;;5.60;;
22543;SDS011;11438;52.044;8.716;2023-07-02T08:35:55;15.02;;;5.60;;
22543;SDS011;11438;52.044;8.716;2023-07-02T08:38:20;13.77;;;5.80;;
22543;SDS011;11438;52.044;8.716;2023-07-02T08:40:46;13.82;;;6.32;;
22543;SDS011;11438;52.044;8.716;2023-07-02T08:43:13;12.48;;;6.28;;
22543;SDS011;11438;52.044;8.716;2023-07-02T08:45:40;12.05;;;5.88;;
22543;SDS011;11438;52.044;8.716;2023-07-02T08:48:08;13.25;;;5.13;;
22543;SDS011;11438;52.044;8.716;2023-07-02T08:50:35;11.43;;;5.13;;
22543;SDS011;11438;52.044;8.716;2023-07-02T08:53:01;10.93;;;5.55;;
22543;SDS011;11438;52.044;8.716;2023-07-02T08:55:26;10.88;;;5.68;;
22543;SDS011;11438;52.044;8.716;2023-07-02T08:57:55;12.07;;;5.50;;
22543;SDS011;11438;52.044;8.716;2023-07-02T09:00:24;13.68;;;6.32;;
22543;SDS011;11438;52.044;8.716;2023-07-02T09:02:50;14.75;;;5.70;;
22543;SDS011;11438;52.044;8.716;2023-07-02T09:05:15;10.52;;;5.20;;
22543;SDS011;11438;52.044;8.716;2023-07-02T09:07:47;12.25;;;5.45;;
22543;SDS011;11438;52.044;8.716;2023-07-02T09:10:27;12.95;;;5.38;;
22543;SDS011;11438;52.044;8.716;2023-07-02T09:13:15;13.43;;;4.80;;
22543;SDS011;11438;52.044;8.716;2023-07-02T09:15:40;13.10;;;5.32;;
22543;SDS011;11438;52.044;8.716;2023-07-02T09:18:15;9.20;;;4.97;;
22543;SDS011;11438;52.044;8.716;2023-07-02T09:20:44;10.75;;;5.18;;
22543;SDS011;11438;52.044;8.716;2023-07-02T09:23:11;11.25;;;5.43;;
22543;SDS011;11438;52.044;8.716;2023-07-02T09:25:37;14.85;;;5.50;;
22543;SDS011;11438;52.044;8.716;2023-07-02T09:28:20;12.23;;;5.60;;
22543;SDS011;11438;52.044;8.716;2023-07-02T09:31:05;8.35;;;4.70;;
22543;SDS011;11438;52.044;8.716;2023-07-02T09:33:31;11.93;;;4.80;;
22543;SDS011;11438;52.044;8.716;2023-07-02T09:35:56;10.93;;;4.95;;
22543;SDS011;11438;52.044;8.716;2023-07-02T09:38:22;9.50;;;4.72;;
22543;SDS011;11438;52.044;8.716;2023-07-02T09:40:51;10.55;;;4.78;;
22543;SDS011;11438;52.044;8.716;2023-07-02T09:43:18;12.50;;;5.03;;
22543;SDS011;11438;52.044;8.716;2023-07-02T09:45:45;10.27;;;5.35;;
22543;SDS011;11438;52.044;8.716;2023-07-02T09:48:15;12.90;;;5.43;;
22543;SDS011;11438;52.044;8.716;2023-07-02T09:50:42;9.85;;;4.88;;
22543;SDS011;11438;52.044;8.716;2023-07-02T09:53:10;11.23;;;5.00;;
22543;SDS011;11438;52.044;8.716;2023-07-02T09:55:37;13.30;;;4.70;;
22543;SDS011;11438;52.044;8.716;2023-07-02T09:58:03;10.15;;;4.32;;
22543;SDS011;11438;52.044;8.716;2023-07-02T10:00:29;8.73;;;4.60;;
22543;SDS011;11438;52.044;8.716;2023-07-02T10:02:55;10.32;;;5.00;;
22543;SDS011;11438;52.044;8.716;2023-07-02T10:05:27;9.48;;;4.38;;
22543;SDS011;11438;52.044;8.716;2023-07-02T10:07:57;10.15;;;4.63;;
22543;SDS011;11438;52.044;8.716;2023-07-02T10:10:35;8.75;;;4.40;;
22543;SDS011;11438;52.044;8.716;2023-07-02T10:13:01;8.85;;;4.22;;
22543;SDS011;11438;52.044;8.716;2023-07-02T10:15:27;15.65;;;5.35;;
22543;SDS011;11438;52.044;8.716;2023-07-02T10:17:57;11.93;;;4.72;;
22543;SDS011;11438;52.044;8.716;2023-07-02T10:20:34;9.60;;;4.65;;
22543;SDS011;11438;52.044;8.716;2023-07-02T10:23:02;9.75;;;4.50;;
22543;SDS011;11438;52.044;8.716;2023-07-02T10:25:30;9.65;;;4.60;;
22543;SDS011;11438;52.044;8.716;2023-07-02T10:27:58;11.65;;;4.78;;
22543;SDS011;11438;52.044;8.716;2023-07-02T10:30:37;9.70;;;4.75;;
22543;SDS011;11438;52.044;8.716;2023-07-02T10:33:10;11.30;;;5.18;;
22543;SDS011;11438;52.044;8.716;2023-07-02T10:35:40;8.60;;;4.07;;
22543;SDS011;11438;52.044;8.716;2023-07-02T10:38:07;10.52;;;4.40;;
22543;SDS011;11438;52.044;8.716;2023-07-02T10:40:39;8.70;;;4.40;;
22543;SDS011;11438;52.044;8.716;2023-07-02T10:43:04;15.13;;;5.85;;
22543;SDS011;11438;52.044;8.716;2023-07-02T10:45:33;9.00;;;5.35;;
22543;SDS011;11438;52.044;8.716;2023-07-02T10:48:03;13.63;;;5.53;;
22543;SDS011;11438;52.044;8.716;2023-07-02T10:50:30;10.15;;;5.00;;
22543;SDS011;11438;52.044;8.716;2023-07-02T10:52:56;10.85;;;4.70;;
22543;SDS011;11438;52.044;8.716;2023-07-02T10:55:23;11.48;;;5.13;;
22543;SDS011;11438;52.044;8.716;2023-07-02T10:57:49;7.80;;;4.10;;
22543;SDS011;11438;52.044;8.716;2023-07-02T11:00:26;9.27;;;4.57;;
22543;SDS011;11438;52.044;8.716;2023-07-02T11:02:52;9.15;;;4.22;;
22543;SDS011;11438;52.044;8.716;2023-07-02T11:05:17;11.05;;;3.90;;
22543;SDS011;11438;52.044;8.716;2023-07-02T11:07:43;9.73;;;4.55;;
22543;SDS011;11438;52.044;8.716;2023-07-02T11:10:09;9.48;;;4.47;;
22543;SDS011;11438;52.044;8.716;2023-07-02T11:12:41;12.07;;;4.63;;
22543;SDS011;11438;52.044;8.716;2023-07-02T11:15:07;7.70;;;3.97;;
22543;SDS011;11438;52.044;8.716;2023-07-02T11:17:37;8.52;;;3.90;;
22543;SDS011;11438;52.044;8.716;2023-07-02T11:20:06;9.27;;;4.50;;
22543;SDS011;11438;52.044;8.716;2023-07-02T11:22:33;10.48;;;4.55;;
22543;SDS011;11438;52.044;8.716;2023-07-02T11:25:13;11.70;;;5.00;;
22543;SDS011;11438;52.044;8.716;2023-07-02T11:27:40;9.45;;;4.82;;
22543;SDS011;11438;52.044;8.716;2023-07-02T11:30:06;7.72;;;4.28;;
22543;SDS011;11438;52.044;8.716;2023-07-02T11:32:52;15.10;;;4.95;;
22543;SDS011;11438;52.044;8.716;2023-07-02T11:35:18;9.23;;;4.10;;
22543;SDS011;11438;52.044;8.716;2023-07-02T11:37:45;11.68;;;4.57;;
22543;SDS011;11438;52.044;8.716;2023-07-02T11:40:11;7.85;;;4.32;;
22543;SDS011;11438;52.044;8.716;2023-07-02T11:42:38;10.95;;;4.30;;
22543;SDS011;11438;52.044;8.716;2023-07-02T11:45:04;10.23;;;4.70;;
22543;SDS011;11438;52.044;8.716;2023-07-02T11:47:30;8.70;;;4.57;;
22543;SDS011;11438;52.044;8.716;2023-07-02T11:49:55;11.18;;;5.22;;
22543;SDS011;11438;52.044;8.716;2023-07-02T11:52:21;9.85;;;4.28;;
22543;SDS011;11438;52.044;8.716;2023-07-02T11:54:47;9.90;;;4.45;;
22543;SDS011;11438;52.044;8.716;2023-07-02T11:57:13;9.27;;;5.03;;
22543;SDS011;11438;52.044;8.716;2023-07-02T11:59:39;10.60;;;4.93;;
22543;SDS011;11438;52.044;8.716;2023-07-02T12:02:05;12.02;;;5.05;;
22543;SDS011;11438;52.044;8.716;2023-07-02T12:04:30;10.98;;;5.05;;
22543;SDS011;11438;52.044;8.716;2023-07-02T12:06:56;8.43;;;4.40;;
22543;SDS011;11438;52.044;8.716;2023-07-02T12:09:21;9.45;;;4.10;;
22543;SDS011;11438;52.044;8.716;2023-07-02T12:11:47;11.98;;;4.75;;
22543;SDS011;11438;52.044;8.716;2023-07-02T12:14:12;10.95;;;4.43;;
22543;SDS011;11438;52.044;8.716;2023-07-02T12:16:38;9.07;;;4.63;;
22543;SDS011;11438;52.044;8.716;2023-07-02T12:19:04;9.02;;;4.60;;
22543;SDS011;11438;52.044;8.716;2023-07-02T12:21:29;11.65;;;5.00;;
22543;SDS011;11438;52.044;8.716;2023-07-02T12:23:55;9.32;;;4.13;;
22543;SDS011;11438;52.044;8.716;2023-07-02T12:26:20;7.75;;;4.18;;
22543;SDS011;11438;52.044;8.716;2023-07-02T12:28:46;9.88;;;4.72;;
22543;SDS011;11438;52.044;8.716;2023-07-02T12:31:11;10.45;;;4.50;;
22543;SDS011;11438;52.044;8.716;2023-07-02T12:33:37;8.60;;;4.50;;
22543;SDS011;11438;52.044;8.716;2023-07-02T12:36:03;11.82;;;4.90;;
22543;SDS011;11438;52.044;8.716;2023-07-02T12:38:29;14.35;;;5.25;;
22543;SDS011;11438;52.044;8.716;2023-07-02T12:40:54;11.23;;;4.30;;
22543;SDS011;11438;52.044;8.716;2023-07-02T12:43:20;9.70;;;4.25;;
22543;SDS011;11438;52.044;8.716;2023-07-02T12:45:46;11.13;;;4.78;;
22543;SDS011;11438;52.044;8.716;2023-07-02T12:48:12;8.43;;;4.22;;
22543;SDS011;11438;52.044;8.716;2023-07-02T12:50:37;11.15;;;4.20;;
22543;SDS011;11438;52.044;8.716;2023-07-02T12:53:04;8.73;;;4.85;;
22543;SDS011;11438;52.044;8.716;2023-07-02T12:55:30;10.40;;;4.38;;
22543;SDS011;11438;52.044;8.716;2023-07-02T12:57:56;10.80;;;4.35;;
22543;SDS011;11438;52.044;8.716;2023-07-02T13:00:21;8.27;;;4.30;;
22543;SDS011;11438;52.044;8.716;2023-07-02T13:02:47;7.85;;;4.00;;
22543;SDS011;11438;52.044;8.716;2023-07-02T13:05:13;8.27;;;3.90;;
22543;SDS011;11438;52.044;8.716;2023-07-02T13:07:38;9.30;;;4.05;;
22543;SDS011;11438;52.044;8.716;2023-07-02T13:10:04;7.40;;;3.70;;
22543;SDS011;11438;52.044;8.716;2023-07-02T13:12:30;6.32;;;3.70;;
22543;SDS011;11438;52.044;8.716;2023-07-02T13:14:56;9.00;;;3.83;;
22543;SDS011;11438;52.044;8.716;2023-07-02T13:17:21;9.73;;;3.83;;
22543;SDS011;11438;52.044;8.716;2023-07-02T13:19:47;10.25;;;4.03;;
22543;SDS011;11438;52.044;8.716;2023-07-02T13:22:13;8.02;;;3.78;;
22543;SDS011;11438;52.044;8.716;2023-07-02T13:24:39;10.00;;;4.25;;
22543;SDS011;11438;52.044;8.716;2023-07-02T13:27:07;7.32;;;3.80;;
22543;SDS011;11438;52.044;8.716;2023-07-02T13:29:37;10.00;;;3.70;;
22543;SDS011;11438;52.044;8.716;2023-07-02T13:32:03;10.88;;;4.25;;
22543;SDS011;11438;52.044;8.716;2023-07-02T13:34:28;6.40;;;3.22;;
22543;SDS011;11438;52.044;8.716;2023-07-02T13:36:54;6.72;;;3.42;;
22543;SDS011;11438;52.044;8.716;2023-07-02T13:39:19;10.73;;;4.13;;
22543;SDS011;11438;52.044;8.716;2023-07-02T13:41:51;8.10;;;3.63;;
22543;SDS011;11438;52.044;8.716;2023-07-02T13:44:17;6.88;;;3.40;;
22543;SDS011;11438;52.044;8.716;2023-07-02T13:46:43;7.70;;;3.58;;
22543;SDS011;11438;52.044;8.716;2023-07-02T13:49:10;7.80;;;3.63;;
22543;SDS011;11438;52.044;8.716;2023-07-02T13:51:36;12.05;;;4.47;;
22543;SDS011;11438;52.044;8.716;2023-07-02T13:54:01;8.63;;;3.65;;
22543;SDS011;11438;52.044;8.716;2023-07-02T13:56:27;6.72;;;3.42;;
22543;SDS011;11438;52.044;8.716;2023-07-02T14:01:21;8.38;;;3.75;;
22543;SDS011;11438;52.044;8.716;2023-07-02T14:03:47;8.00;;;3.38;;
22543;SDS011;11438;52.044;8.716;2023-07-02T14:06:13;8.38;;;3.72;;
22543;SDS011;11438;52.044;8.716;2023-07-02T14:08:38;7.57;;;3.25;;
22543;SDS011;11438;52.044;8.716;2023-07-02T14:11:03;7.05;;;3.78;;
22543;SDS011;11438;52.044;8.716;2023-07-02T14:13:29;8.13;;;3.47;;
22543;SDS011;11438;52.044;8.716;2023-07-02T14:15:55;7.78;;;3.95;;
22543;SDS011;11438;52.044;8.716;2023-07-02T14:18:21;9.32;;;4.10;;
22543;SDS011;11438;52.044;8.716;2023-07-02T14:20:47;10.90;;;3.88;;
22543;SDS011;11438;52.044;8.716;2023-07-02T14:23:12;6.55;;;3.63;;
22543;SDS011;11438;52.044;8.716;2023-07-02T14:25:38;8.07;;;4.03;;
22543;SDS011;11438;52.044;8.716;2023-07-02T14:28:03;9.45;;;3.75;;
22543;SDS011;11438;52.044;8.716;2023-07-02T14:30:29;9.73;;;3.88;;
22543;SDS011;11438;52.044;8.716;2023-07-02T14:32:55;8.13;;;4.03;;
22543;SDS011;11438;52.044;8.716;2023-07-02T14:35:20;7.15;;;3.72;;
22543;SDS011;11438;52.044;8.716;2023-07-02T14:37:50;7.97;;;3.50;;
22543;SDS011;11438;52.044;8.716;2023-07-02T14:40:15;7.97;;;3.60;;